Time;durP1;ratioP1;P1;durP2;ratioP2;P2;SDS_P1;SDS_P2;PMS_P1;PMS_P2;Temp;Humidity;BMP_temperature;BMP_pressure;BME280_temperature;BME280_humidity;BME280_pressure;Samples;Min_cycle;Max_cycle;Signal;HPM_P1;HPM_P2
2021/05/06 00:33:05;;;;;;;12.77;4.17;;;;;;;16.12;63.97;100657.47;4983747;28;20496;-68
2021/05/06 00:35:35;;;;;;;11.60;4.00;;;;;;;16.02;63.89;100641.63;4980700;28;20487;-69
2021/05/06 00:38:15;;;;;;;11.97;4.10;;;;;;;16.14;64.02;100655.19;4981989;28;20252;-69
2021/05/06 00:41:01;;;;;;;9.35;3.95;;;;;;;16.13;63.95;100645.03;4983747;28;20050;-69
2021/05/06 01:04:26;;;;;;;8.27;3.33;;;;;;;16.16;64.35;100630.34;4978127;28;20073;-78
2021/05/06 01:07:13;;;;;;;15.00;3.77;;;;;;;16.13;64.41;100625.31;4977651;28;20053;-79
2021/05/06 01:10:35;;;;;;;9.87;3.23;;;;;;;16.12;64.36;100634.94;4972884;28;20054;-77
2021/05/06 01:12:27;;;;;;;9.37;3.60;;;;;;;16.11;64.55;100633.28;4972304;28;20050;-76
2021/05/06 01:14:53;;;;;;;8.30;4.23;;;;;;;16.11;64.48;100628.47;4977322;28;20125;-74
2021/05/06 01:17:20;;;;;;;11.47;3.40;;;;;;;16.12;64.59;100629.31;4976878;28;20082;-77
2021/05/06 01:19:47;;;;;;;10.40;4.00;;;;;;;16.11;64.46;100622.00;4981732;28;20428;-78
2021/05/06 01:22:13;;;;;;;13.90;3.97;;;;;;;16.12;64.56;100626.47;4981316;28;20541;-78
2021/05/06 01:24:43;;;;;;;9.43;4.23;;;;;;;16.03;64.75;100609.50;4983427;28;20543;-78
2021/05/06 01:27:16;;;;;;;15.85;4.45;;;;;;;16.11;64.68;100634.09;4975141;28;20050;-71
2021/05/06 01:29:49;;;;;;;10.50;4.73;;;;;;;16.11;64.51;100622.00;4976343;28;20046;-80
2021/05/06 01:34:45;;;;;;;7.87;3.70;;;;;;;16.00;64.39;100614.91;4981718;28;20088;-68
2021/05/06 01:37:21;;;;;;;8.80;3.83;;;;;;;16.08;64.37;100629.09;4980607;28;20046;-74
2021/05/06 01:42:49;;;;;;;13.47;4.07;;;;;;;16.05;64.37;100635.38;4974982;28;20050;-74
2021/05/06 01:45:44;;;;;;;9.00;3.47;;;;;;;16.06;64.01;100627.75;4972295;28;20046;-75
2021/05/06 01:58:37;;;;;;;14.63;4.33;;;;;;;16.00;64.25;100626.19;4978437;28;20109;-72
2021/05/06 02:01:06;;;;;;;8.57;3.33;;;;;;;15.98;64.15;100639.75;4973980;28;20047;-72
2021/05/06 02:03:36;;;;;;;8.73;4.03;;;;;;;15.85;64.15;100616.91;4974984;28;20134;-72
2021/05/06 02:06:03;;;;;;;8.10;3.85;;;;;;;15.95;64.23;100627.13;4975818;28;20498;-73
2021/05/06 02:08:30;;;;;;;9.73;3.80;;;;;;;15.95;64.25;100640.38;4976465;28;20514;-71
2021/05/06 02:11:00;;;;;;;9.43;3.50;;;;;;;15.92;64.21;100635.38;4975267;28;20078;-73
2021/05/06 02:13:28;;;;;;;8.83;3.80;;;;;;;15.78;64.28;100624.13;4981283;28;20098;-74
2021/05/06 02:15:58;;;;;;;12.23;4.43;;;;;;;15.86;64.35;100631.81;4979465;28;20054;-73
2021/05/06 02:18:27;;;;;;;11.20;3.47;;;;;;;15.85;64.28;100635.81;4981729;28;20046;-73
2021/05/06 02:20:54;;;;;;;15.13;4.23;;;;;;;15.79;64.21;100620.97;4985310;28;20046;-73
2021/05/06 02:23:20;;;;;;;9.17;3.10;;;;;;;15.84;64.63;100622.88;4978090;28;20138;-73
2021/05/06 02:25:47;;;;;;;12.77;3.73;;;;;;;15.80;64.43;100616.22;4978474;28;20120;-73
2021/05/06 02:28:15;;;;;;;7.50;3.23;;;;;;;15.84;64.93;100615.25;4986413;28;20084;-71
2021/05/06 02:30:42;;;;;;;11.47;4.37;;;;;;;15.92;64.79;100624.13;4983168;28;20072;-71
2021/05/06 02:33:09;;;;;;;11.57;5.60;;;;;;;15.93;64.98;100625.78;4982980;28;20124;-71
2021/05/06 02:35:38;;;;;;;11.80;4.93;;;;;;;15.94;65.17;100627.47;4988552;28;20046;-79
2021/05/06 02:38:06;;;;;;;8.90;3.70;;;;;;;15.94;65.34;100619.00;4976252;28;20422;-80
2021/05/06 02:40:35;;;;;;;10.10;3.70;;;;;;;15.97;65.46;100615.56;4987765;28;20074;-78
2021/05/06 02:43:06;;;;;;;10.53;4.10;;;;;;;16.00;65.52;100620.53;4988835;28;20055;-77
2021/05/06 02:45:32;;;;;;;5.73;3.30;;;;;;;15.93;65.62;100615.38;4976746;28;20074;-78
2021/05/06 02:47:59;;;;;;;9.30;3.60;;;;;;;15.84;65.82;100612.44;4983326;28;20447;-77
2021/05/06 02:50:25;;;;;;;10.27;3.57;;;;;;;15.80;65.88;100611.41;4981701;28;20749;-77
2021/05/06 02:58:06;;;;;;;8.57;4.07;;;;;;;15.37;67.03;100610.84;4982213;28;20046;-77
2021/05/06 03:03:18;;;;;;;10.30;4.27;;;;;;;15.00;68.05;100611.84;4984055;28;20077;-80
2021/05/06 03:05:50;;;;;;;7.03;3.93;;;;;;;14.88;68.42;100618.78;4983531;28;20070;-79
2021/05/06 03:08:38;;;;;;;7.97;3.60;;;;;;;14.67;68.65;100606.22;4984208;28;20050;-79
2021/05/06 03:24:29;;;;;;;10.67;5.17;;;;;;;14.64;68.79;100602.06;4979967;28;20122;-70
2021/05/06 03:26:56;;;;;;;6.90;4.10;;;;;;;14.67;68.50;100595.81;4979440;28;20504;-70
2021/05/06 03:29:34;;;;;;;10.83;5.17;;;;;;;14.83;68.15;100604.81;4980284;28;20042;-70
2021/05/06 03:32:20;;;;;;;8.27;4.43;;;;;;;14.84;68.06;100606.50;4978852;28;20065;-69
2021/05/06 03:35:29;;;;;;;8.20;4.30;;;;;;;14.56;68.51;100587.84;4984132;28;20050;-68
2021/05/06 03:43:30;;;;;;;15.20;5.20;;;;;;;14.56;68.94;100605.53;4987330;28;20050;-68
2021/05/06 04:18:15;;;;;;;17.67;5.50;;;;;;;14.26;70.79;100587.19;4977970;28;20057;-74
2021/05/06 04:39:10;;;;;;;18.80;6.70;;;;;;;14.05;72.03;100583.00;4977407;28;20050;-70
2021/05/06 04:55:14;;;;;;;15.60;4.87;;;;;;;14.47;69.58;100593.31;4980216;28;20054;-67
2021/05/06 05:05:39;;;;;;;14.20;5.20;;;;;;;14.58;68.83;100606.09;4977330;28;20125;-69
2021/05/06 05:08:10;;;;;;;12.70;5.83;;;;;;;14.57;68.81;100601.59;4980846;28;20464;-73
2021/05/06 05:10:46;;;;;;;13.17;5.23;;;;;;;14.51;68.96;100600.03;4981576;28;20047;-74
2021/05/06 05:23:46;;;;;;;14.60;6.07;;;;;;;14.31;69.19;100615.19;4982288;28;20078;-76
2021/05/06 05:26:13;;;;;;;15.40;6.83;;;;;;;14.33;68.88;100601.69;4982058;28;20118;-74
2021/05/06 05:28:40;;;;;;;14.43;5.60;;;;;;;14.55;68.66;100623.56;4976828;28;20060;-71
2021/05/06 05:31:06;;;;;;;18.23;6.03;;;;;;;14.64;68.57;100630.16;4981463;28;20042;-72
2021/05/06 05:33:39;;;;;;;12.43;6.03;;;;;;;14.70;68.43;100619.69;4976845;28;20050;-71
2021/05/06 05:41:45;;;;;;;15.57;5.70;;;;;;;14.87;68.13;100633.13;4975304;28;20154;-67
2021/05/06 05:54:56;;;;;;;15.13;6.33;;;;;;;14.98;67.67;100651.53;4977257;28;20047;-72
2021/05/06 05:57:23;;;;;;;14.87;6.87;;;;;;;14.99;67.34;100641.94;4978236;28;20043;-70
2021/05/06 05:59:50;;;;;;;14.00;7.33;;;;;;;15.21;67.33;100654.47;4975901;28;20046;-75
2021/05/06 06:02:17;;;;;;;17.03;6.70;;;;;;;15.28;67.45;100654.91;4971800;28;20134;-67
2021/05/06 06:04:43;;;;;;;13.90;6.70;;;;;;;15.44;67.38;100664.75;4978712;28;20078;-68
2021/05/06 06:07:09;;;;;;;12.50;6.20;;;;;;;15.59;66.88;100660.81;4976337;28;20078;-67
2021/05/06 06:09:36;;;;;;;15.57;5.80;;;;;;;15.82;66.63;100658.97;4984081;28;20053;-68
2021/05/06 06:12:02;;;;;;;11.87;6.27;;;;;;;15.92;66.15;100655.94;4977755;28;20137;-67
2021/05/06 06:14:46;;;;;;;15.17;6.33;;;;;;;16.12;65.91;100663.09;4975904;28;20050;-67
2021/05/06 06:17:13;;;;;;;12.47;6.57;;;;;;;15.99;65.40;100663.94;4978429;28;20074;-67
2021/05/06 06:19:47;;;;;;;9.93;5.67;;;;;;;15.81;65.56;100663.75;4976999;28;20084;-67
2021/05/06 06:22:19;;;;;;;14.17;5.83;;;;;;;15.70;65.61;100664.28;4983605;28;20054;-67
2021/05/06 06:24:47;;;;;;;12.90;6.18;;;;;;;15.58;65.53;100661.94;4976451;28;20039;-67
2021/05/06 06:27:14;;;;;;;13.20;6.40;;;;;;;15.49;65.67;100675.09;4973757;28;20142;-67
2021/05/06 06:29:42;;;;;;;14.15;6.40;;;;;;;15.57;66.08;100677.16;4973569;28;20055;-67
2021/05/06 06:32:14;;;;;;;12.83;6.33;;;;;;;15.60;66.09;100674.56;4976475;28;20471;-67
2021/05/06 06:34:40;;;;;;;13.23;5.90;;;;;;;15.61;66.03;100655.69;4977139;28;20047;-66
2021/05/06 06:37:07;;;;;;;12.57;6.40;;;;;;;16.08;66.26;100671.34;4976239;28;20194;-66
2021/05/06 06:39:36;;;;;;;18.20;6.73;;;;;;;16.36;66.09;100674.13;4975393;28;20121;-68
2021/05/06 06:42:03;;;;;;;11.27;5.80;;;;;;;16.62;65.25;100668.75;4975184;28;20090;-67
2021/05/06 06:44:32;;;;;;;10.37;5.43;;;;;;;16.97;65.19;100683.16;4978584;28;20047;-66
2021/05/06 06:47:02;;;;;;;9.60;6.00;;;;;;;17.31;64.57;100690.19;4977366;28;20200;-67
2021/05/06 06:49:31;;;;;;;13.00;5.72;;;;;;;17.52;64.17;100677.19;4971110;28;20710;-67
2021/05/06 06:51:59;;;;;;;11.82;5.43;;;;;;;17.74;63.94;100671.47;4977076;28;20497;-67
2021/05/06 06:54:27;;;;;;;15.20;9.68;;;;;;;18.00;63.17;100693.38;4981990;28;20054;-67
2021/05/06 06:57:01;;;;;;;15.15;7.47;;;;;;;18.23;62.59;100692.09;4979903;28;20134;-67
2021/05/06 06:59:27;;;;;;;15.63;7.50;;;;;;;18.41;62.43;100694.97;4977843;28;20057;-67
2021/05/06 07:01:54;;;;;;;11.32;6.65;;;;;;;18.50;61.87;100695.81;4980146;28;20046;-70
2021/05/06 07:04:20;;;;;;;10.85;6.78;;;;;;;18.56;61.50;100700.13;4977270;28;20109;-68
2021/05/06 07:06:47;;;;;;;15.43;7.32;;;;;;;18.72;60.96;100702.53;4981630;28;20050;-69
2021/05/06 07:09:13;;;;;;;12.93;6.97;;;;;;;18.89;60.55;100702.53;4983307;28;20474;-70
2021/05/06 07:11:39;;;;;;;10.02;6.25;;;;;;;19.00;60.25;100703.84;4984461;28;20130;-69
2021/05/06 07:14:06;;;;;;;11.60;5.65;;;;;;;19.11;59.93;100702.34;4985095;28;20417;-69
2021/05/06 07:16:33;;;;;;;11.63;6.38;;;;;;;19.15;59.68;100672.22;4960767;28;20055;-69
2021/05/06 07:19:00;;;;;;;11.27;5.57;;;;;;;19.53;59.16;100705.44;4975275;28;20054;-69
2021/05/06 07:21:27;;;;;;;15.00;5.30;;;;;;;19.59;59.11;100684.25;4978822;28;20411;-69
2021/05/06 07:23:54;;;;;;;7.80;4.55;;;;;;;19.86;58.34;100708.53;4979718;28;20046;-68
2021/05/06 07:26:26;;;;;;;9.18;4.90;;;;;;;19.99;58.13;100700.13;4978137;28;20042;-68
2021/05/06 07:28:54;;;;;;;7.50;3.90;;;;;;;20.15;57.75;100706.06;4984065;28;20053;-68
2021/05/06 07:31:23;;;;;;;6.90;4.63;;;;;;;20.10;57.68;100690.06;4975416;28;20050;-68
2021/05/06 07:33:51;;;;;;;6.43;4.20;;;;;;;20.51;56.96;100712.06;4977586;28;20057;-68
2021/05/06 07:36:21;;;;;;;8.70;4.57;;;;;;;20.49;56.54;100719.22;4980309;28;20327;-68
2021/05/06 07:38:51;;;;;;;6.57;3.92;;;;;;;20.29;56.56;100720.81;4977930;28;20043;-70
2021/05/06 07:41:20;;;;;;;11.20;4.75;;;;;;;19.96;56.84;100715.81;4983235;28;20058;-71
2021/05/06 07:43:49;;;;;;;10.55;3.78;;;;;;;19.87;57.11;100723.53;4977843;28;20054;-69
2021/05/06 07:46:20;;;;;;;9.48;3.80;;;;;;;19.71;56.89;100711.09;4980965;28;20127;-69
2021/05/06 07:48:52;;;;;;;8.98;4.75;;;;;;;19.55;57.12;100714.41;4974664;28;20460;-69
2021/05/06 07:51:25;;;;;;;15.88;4.90;;;;;;;19.37;57.46;100695.81;4979026;28;20051;-70
2021/05/06 07:53:56;;;;;;;6.72;4.47;;;;;;;19.47;56.98;100718.09;4974980;28;20053;-69
2021/05/06 07:56:26;;;;;;;13.02;4.55;;;;;;;19.44;56.89;100718.78;4975083;28;20050;-70
2021/05/06 07:58:52;;;;;;;5.32;3.50;;;;;;;19.33;56.87;100729.63;4974860;28;20480;-70
2021/05/06 08:01:19;;;;;;;7.05;3.95;;;;;;;19.37;57.11;100721.28;4974263;28;20050;-68
2021/05/06 08:03:45;;;;;;;5.38;3.50;;;;;;;19.61;56.90;100717.91;4980108;28;20054;-71
2021/05/06 08:06:15;;;;;;;8.20;3.13;;;;;;;19.83;56.43;100725.38;4985071;28;20074;-67
2021/05/06 08:08:44;;;;;;;5.20;3.25;;;;;;;20.16;56.30;100719.06;4981537;28;20058;-69
2021/05/06 08:11:10;;;;;;;6.35;3.92;;;;;;;20.54;55.77;100731.19;4982117;28;20074;-68
2021/05/06 08:13:36;;;;;;;11.30;4.22;;;;;;;20.99;54.97;100730.56;4979873;28;20051;-70
2021/05/06 08:16:03;;;;;;;7.03;3.65;;;;;;;21.06;54.18;100733.66;4976332;28;20057;-68
2021/05/06 08:18:29;;;;;;;10.60;3.70;;;;;;;21.14;54.24;100731.91;4981887;28;20042;-68
2021/05/06 08:20:56;;;;;;;9.70;4.60;;;;;;;21.12;54.24;100713.56;4982283;28;20859;-69
2021/05/06 08:23:22;;;;;;;9.15;4.47;;;;;;;21.07;53.87;100723.13;4978951;28;20451;-69
2021/05/06 08:25:51;;;;;;;7.68;4.28;;;;;;;21.19;53.54;100737.38;4982192;28;20052;-68
2021/05/06 08:28:26;;;;;;;9.60;4.80;;;;;;;21.48;52.85;100721.44;4984553;28;20046;-69
2021/05/06 08:30:55;;;;;;;7.32;4.72;;;;;;;21.95;52.46;100727.59;4980497;28;20122;-68
2021/05/06 08:33:25;;;;;;;13.45;5.20;;;;;;;22.20;51.00;100736.16;4983237;28;20074;-69
2021/05/06 08:35:51;;;;;;;6.68;4.43;;;;;;;22.35;51.11;100734.59;4979893;28;20149;-68
2021/05/06 08:38:18;;;;;;;7.63;4.13;;;;;;;22.60;50.18;100739.13;4979688;28;20082;-69
2021/05/06 08:40:45;;;;;;;6.82;4.05;;;;;;;22.78;49.74;100727.47;4982771;28;20050;-68
2021/05/06 08:43:12;;;;;;;9.27;4.40;;;;;;;23.21;49.13;100738.13;4984660;28;20410;-70
2021/05/06 08:45:43;;;;;;;7.70;4.70;;;;;;;23.45;49.02;100745.75;4978550;28;20129;-69
2021/05/06 08:48:14;;;;;;;7.97;4.43;;;;;;;23.86;48.42;100735.97;4985426;28;20069;-71
2021/05/06 08:50:42;;;;;;;6.38;4.00;;;;;;;24.43;47.94;100730.91;4978755;28;20054;-69
2021/05/06 08:53:10;;;;;;;7.75;3.42;;;;;;;24.83;46.69;100730.63;4975772;28;20046;-68
2021/05/06 08:55:37;;;;;;;8.10;3.88;;;;;;;25.23;45.81;100720.91;4979503;28;20129;-71
2021/05/06 08:58:03;;;;;;;5.55;3.10;;;;;;;25.76;44.86;100723.16;4970694;28;20054;-70
2021/05/06 09:00:31;;;;;;;7.55;3.70;;;;;;;26.23;44.41;100717.09;4972353;28;20045;-70
2021/05/06 09:02:57;;;;;;;6.70;3.15;;;;;;;26.68;43.05;100726.00;4978584;28;20050;-69
2021/05/06 09:05:24;;;;;;;6.93;3.78;;;;;;;26.93;42.64;100723.50;4980711;28;20050;-69
2021/05/06 09:07:51;;;;;;;7.00;3.80;;;;;;;27.08;42.13;100727.41;4977750;28;20046;-70
2021/05/06 09:10:39;;;;;;;4.95;2.95;;;;;;;27.33;42.21;100722.84;4974093;28;20054;-71
2021/05/06 09:13:30;;;;;;;6.13;3.03;;;;;;;27.57;41.62;100730.06;4977701;28;20054;-70
2021/05/06 09:15:57;;;;;;;2.72;1.42;;;;;;;27.98;40.11;100724.38;4981488;28;20129;-70
2021/05/06 09:18:40;;;;;;;2.47;1.30;;;;;;;28.10;39.86;100718.34;4975236;28;20047;-70
2021/05/06 09:21:25;;;;;;;1.42;1.00;;;;;;;28.18;38.69;100729.91;4978444;28;20494;-70
2021/05/06 09:24:27;;;;;;;4.40;1.40;;;;;;;27.84;39.40;100707.03;4974788;28;20043;-70
2021/05/06 09:26:55;;;;;;;1.15;0.80;;;;;;;27.48;39.06;100717.25;4978173;28;20133;-70
2021/05/06 09:29:52;;;;;;;4.57;2.20;;;;;;;26.82;40.42;100729.06;4977970;28;20188;-71
2021/05/06 09:32:23;;;;;;;6.43;1.63;;;;;;;26.53;40.00;100722.13;4972626;28;20057;-71
2021/05/06 09:34:54;;;;;;;1.92;1.40;;;;;;;26.26;40.13;100726.09;4974825;28;20685;-71
2021/05/06 09:37:28;;;;;;;3.92;1.52;;;;;;;25.88;40.77;100727.91;4978442;28;20042;-71
2021/05/06 09:40:07;;;;;;;7.22;3.47;;;;;;;25.29;41.48;100724.28;4976346;28;20043;-70
2021/05/06 09:42:49;;;;;;;5.50;1.88;;;;;;;24.78;41.92;100719.47;4974491;28;20550;-70
2021/05/06 09:45:26;;;;;;;3.53;1.40;;;;;;;24.44;42.07;100717.44;4979687;28;20491;-70
2021/05/06 09:48:16;;;;;;;6.07;1.90;;;;;;;24.05;43.10;100720.13;4978044;28;20074;-69
2021/05/06 09:50:46;;;;;;;3.65;1.80;;;;;;;23.81;43.29;100723.97;4976595;28;20053;-69
2021/05/06 09:53:18;;;;;;;8.32;3.38;;;;;;;23.37;44.12;100716.22;4980171;28;20145;-72
2021/05/06 09:55:46;;;;;;;9.30;2.72;;;;;;;22.89;45.23;100720.06;4979826;28;20039;-70
2021/05/06 09:58:15;;;;;;;6.80;3.85;;;;;;;22.69;45.42;100721.88;4974802;28;20055;-70
2021/05/06 10:00:42;;;;;;;8.30;3.10;;;;;;;22.47;46.19;100723.22;4976801;28;20046;-70
2021/05/06 10:03:13;;;;;;;5.95;2.92;;;;;;;22.22;46.78;100717.56;4982433;28;21070;-70
2021/05/06 10:05:41;;;;;;;6.60;3.40;;;;;;;22.06;47.15;100704.38;4978208;28;20480;-70
2021/05/06 10:08:09;;;;;;;8.77;3.17;;;;;;;22.24;47.08;100715.16;4974302;28;20062;-70
2021/05/06 10:10:36;;;;;;;6.20;2.83;;;;;;;22.37;47.24;100724.53;4979262;28;20050;-72
2021/05/06 10:13:05;;;;;;;5.18;2.72;;;;;;;22.49;47.22;100729.38;4978259;28;20057;-70
2021/05/06 10:15:33;;;;;;;5.93;2.60;;;;;;;22.51;47.21;100729.88;4974125;28;20110;-70
2021/05/06 10:17:59;;;;;;;9.02;3.15;;;;;;;22.59;47.24;100731.75;4978934;28;20190;-71
2021/05/06 10:20:28;;;;;;;7.32;3.03;;;;;;;22.54;46.81;100717.78;4974937;28;20406;-71
2021/05/06 10:22:56;;;;;;;7.35;3.20;;;;;;;22.53;47.09;100709.56;4978040;28;20053;-70
2021/05/06 10:25:25;;;;;;;6.80;3.10;;;;;;;22.65;46.92;100720.94;4975018;28;20480;-70
2021/05/06 10:27:52;;;;;;;7.53;3.50;;;;;;;22.60;47.03;100715.53;4974071;28;20042;-70
2021/05/06 10:30:20;;;;;;;8.15;2.78;;;;;;;22.72;47.03;100724.03;4975560;28;20054;-70
2021/05/06 10:32:46;;;;;;;7.32;2.70;;;;;;;22.78;46.68;100733.97;4983906;28;20141;-69
2021/05/06 10:35:26;;;;;;;7.93;2.97;;;;;;;22.68;47.10;100735.28;4980935;28;20089;-70
2021/05/06 10:37:59;;;;;;;5.55;2.50;;;;;;;22.69;46.90;100733.28;4984587;28;20105;-68
2021/05/06 10:40:30;;;;;;;5.75;2.95;;;;;;;22.68;47.12;100726.75;4986431;28;20054;-71
2021/05/06 10:43:18;;;;;;;6.82;2.95;;;;;;;22.58;47.32;100729.25;4981706;28;20388;-70
2021/05/06 10:46:02;;;;;;;9.00;2.35;;;;;;;22.63;46.94;100726.16;4981700;28;20129;-69
2021/05/06 10:49:02;;;;;;;7.25;2.80;;;;;;;22.56;47.07;100726.75;4985232;28;20112;-71
2021/05/06 10:51:35;;;;;;;4.43;2.03;;;;;;;22.67;46.75;100732.81;4957356;28;20051;-68
2021/05/06 10:54:30;;;;;;;3.63;2.03;;;;;;;22.73;46.85;100731.38;4985665;28;20082;-70
2021/05/06 10:57:22;;;;;;;11.05;2.08;;;;;;;22.84;47.18;100726.03;4981194;28;20051;-70
2021/05/06 10:59:50;;;;;;;3.20;1.73;;;;;;;22.98;46.85;100742.75;4981455;28;20047;-69
2021/05/06 11:02:43;;;;;;;5.10;1.83;;;;;;;22.99;46.96;100727.31;4980555;28;20046;-69
2021/05/06 11:05:29;;;;;;;4.15;2.03;;;;;;;23.08;46.93;100725.97;4980121;28;20051;-71
2021/05/06 11:08:05;;;;;;;2.60;1.90;;;;;;;23.19;46.79;100726.28;4979867;28;20052;-72
2021/05/06 11:10:32;;;;;;;4.97;2.15;;;;;;;23.37;46.34;100724.78;4979371;28;20626;-69
2021/05/06 11:12:59;;;;;;;3.88;2.65;;;;;;;23.84;45.60;100721.22;4976744;28;20137;-71
2021/05/06 11:15:31;;;;;;;4.20;2.40;;;;;;;24.36;45.00;100727.84;4978669;28;20108;-72
2021/05/06 11:17:59;;;;;;;3.60;2.58;;;;;;;24.97;44.21;100730.13;4965572;28;20479;-71
2021/05/06 11:20:29;;;;;;;4.28;2.20;;;;;;;25.60;43.24;100729.00;4975033;28;20078;-71
2021/05/06 11:22:59;;;;;;;8.90;1.95;;;;;;;26.06;42.57;100729.06;4973776;28;20165;-71
2021/05/06 11:25:47;;;;;;;5.45;2.20;;;;;;;26.07;42.36;100738.47;4979616;28;20361;-70
2021/05/06 11:28:15;;;;;;;4.78;1.88;;;;;;;25.74;42.19;100722.72;4978911;28;20133;-70
2021/05/06 11:30:55;;;;;;;4.00;1.70;;;;;;;25.70;42.04;100722.66;4979166;28;20407;-71
2021/05/06 11:33:27;;;;;;;4.43;1.88;;;;;;;25.69;41.99;100729.59;4979850;28;20404;-69
2021/05/06 11:35:55;;;;;;;3.13;1.42;;;;;;;25.43;42.05;100732.31;4977323;28;20053;-70
2021/05/06 11:38:50;;;;;;;2.22;1.70;;;;;;;25.04;42.89;100723.72;4980818;28;20042;-69
2021/05/06 11:41:34;;;;;;;2.90;1.90;;;;;;;25.05;42.80;100731.09;4977721;28;20798;-70
2021/05/06 11:44:07;;;;;;;2.50;1.42;;;;;;;24.82;42.77;100723.25;4977270;28;20069;-69
2021/05/06 11:46:37;;;;;;;4.20;1.65;;;;;;;24.52;43.42;100728.69;4979512;28;20082;-70
2021/05/06 11:49:06;;;;;;;10.10;4.60;;;;;;;24.22;43.84;100724.63;4980856;28;20069;-70
2021/05/06 11:51:43;;;;;;;3.75;1.33;;;;;;;24.01;43.74;100724.91;4975837;28;20143;-73
2021/05/06 11:54:15;;;;;;;5.00;2.80;;;;;;;24.03;44.83;100725.38;4981618;28;20443;-70
2021/05/06 11:56:58;;;;;;;3.00;1.63;;;;;;;24.30;44.54;100720.75;4980120;28;20038;-71
2021/05/06 11:59:30;;;;;;;1.80;1.25;;;;;;;24.54;43.59;100728.28;4984151;28;20047;-71
2021/05/06 12:02:05;;;;;;;2.92;1.95;;;;;;;25.57;42.28;100718.31;4982179;28;20078;-71
2021/05/06 12:04:34;;;;;;;4.15;1.20;;;;;;;26.94;40.28;100719.44;4978998;28;20141;-71
2021/05/06 12:07:17;;;;;;;5.85;1.83;;;;;;;28.03;39.05;100715.41;4962233;28;20043;-71
2021/05/06 12:09:44;;;;;;;1.70;1.25;;;;;;;29.24;36.78;100729.84;4978179;28;20050;-71
2021/05/06 12:12:11;;;;;;;1.30;0.90;;;;;;;29.29;36.45;100726.56;4977823;28;20055;-70
2021/05/06 12:14:38;;;;;;;1.13;0.95;;;;;;;28.77;37.23;100725.03;4978945;28;20051;-71
2021/05/06 12:17:06;;;;;;;3.25;0.93;;;;;;;28.74;36.63;100700.78;4981785;28;20078;-71
2021/05/06 12:19:43;;;;;;;1.67;0.85;;;;;;;28.44;37.28;100729.72;4982551;28;20133;-70
2021/05/06 12:22:10;;;;;;;1.63;1.00;;;;;;;27.72;37.23;100745.41;4978810;28;20141;-69
2021/05/06 12:24:40;;;;;;;2.05;1.05;;;;;;;28.91;35.48;100741.53;4975440;28;20055;-71
2021/05/06 12:27:24;;;;;;;1.13;1.02;;;;;;;30.02;34.30;100722.69;4982148;28;20046;-70
2021/05/06 12:30:10;;;;;;;4.95;1.30;;;;;;;30.95;32.19;100731.31;4981830;28;20054;-68
2021/05/06 12:32:43;;;;;;;4.78;0.93;;;;;;;31.09;31.55;100737.03;4974053;28;20418;-69
2021/05/06 12:35:10;;;;;;;1.05;0.70;;;;;;;29.00;34.33;100745.75;4984218;28;20507;-69
2021/05/06 12:37:38;;;;;;;2.00;1.13;;;;;;;27.55;36.32;100732.50;4979164;28;20562;-70
2021/05/06 12:40:14;;;;;;;1.73;1.10;;;;;;;27.60;35.90;100743.63;4980986;28;20046;-70
2021/05/06 12:42:43;;;;;;;2.92;0.90;;;;;;;26.56;37.13;100741.38;4982081;28;20038;-70
2021/05/06 12:45:13;;;;;;;1.15;0.82;;;;;;;25.63;38.32;100733.94;4977638;28;20067;-69
2021/05/06 12:47:44;;;;;;;2.15;0.90;;;;;;;25.27;38.89;100741.81;4975994;28;20069;-69
2021/05/06 12:50:30;;;;;;;1.95;0.82;;;;;;;25.68;38.50;100741.41;4976007;28;20128;-71
2021/05/06 12:53:05;;;;;;;0.80;0.60;;;;;;;25.29;38.72;100739.41;4976555;28;20473;-71
2021/05/06 12:55:37;;;;;;;0.73;0.70;;;;;;;26.56;37.38;100734.81;4977701;28;20396;-70
2021/05/06 12:58:23;;;;;;;2.15;0.80;;;;;;;26.82;36.75;100725.41;4973912;28;20476;-70
2021/05/06 13:00:55;;;;;;;2.13;0.60;;;;;;;26.01;37.94;100732.22;4978192;28;20050;-70
2021/05/06 13:03:29;;;;;;;2.75;0.65;;;;;;;25.52;38.32;100730.06;4979811;28;20499;-71
2021/05/06 13:05:55;;;;;;;4.15;0.75;;;;;;;25.26;39.26;100737.31;4978750;28;20479;-70
2021/05/06 13:08:42;;;;;;;0.93;0.65;;;;;;;24.99;39.06;100741.16;4978596;28;20057;-70
2021/05/06 13:11:10;;;;;;;1.40;0.80;;;;;;;24.95;39.90;100740.25;4982787;28;20061;-71
2021/05/06 13:13:51;;;;;;;2.72;0.77;;;;;;;24.87;40.01;100735.59;4972853;28;20047;-70
2021/05/06 13:16:46;;;;;;;1.85;0.95;;;;;;;24.90;39.98;100734.84;4981830;28;20484;-73
2021/05/06 13:19:19;;;;;;;1.30;0.70;;;;;;;24.74;39.98;100746.31;4982579;28;20053;-71
2021/05/06 13:21:54;;;;;;;1.55;0.73;;;;;;;24.49;40.12;100745.72;4975125;28;20060;-70
2021/05/06 13:24:21;;;;;;;3.83;1.10;;;;;;;24.46;40.16;100737.91;4977227;28;20384;-71
2021/05/06 13:26:48;;;;;;;2.42;0.80;;;;;;;24.46;40.26;100752.16;4984171;28;20121;-71
2021/05/06 13:29:18;;;;;;;2.47;0.80;;;;;;;24.55;40.28;100755.66;4978302;28;20078;-71
2021/05/06 13:31:47;;;;;;;0.73;0.65;;;;;;;24.48;40.18;100753.47;4975935;28;20321;-71
2021/05/06 13:34:22;;;;;;;1.55;1.10;;;;;;;24.24;40.78;100757.31;4978897;28;20143;-71
2021/05/06 13:36:55;;;;;;;0.60;0.60;;;;;;;24.29;40.77;100759.06;4978173;28;20182;-71
2021/05/06 13:39:21;;;;;;;3.33;1.20;;;;;;;24.22;41.21;100745.44;4980634;28;20402;-69
2021/05/06 13:41:50;;;;;;;1.40;0.90;;;;;;;24.34;41.10;100753.91;4979553;28;20047;-69
2021/05/06 13:44:19;;;;;;;1.98;0.90;;;;;;;24.55;41.18;100744.25;4977315;28;20466;-71
2021/05/06 13:46:54;;;;;;;1.20;0.82;;;;;;;24.58;40.65;100740.63;4975057;28;20125;-69
2021/05/06 13:49:29;;;;;;;0.50;0.50;;;;;;;24.50;41.38;100748.19;4977437;28;20125;-72
2021/05/06 13:51:57;;;;;;;2.15;0.90;;;;;;;24.45;41.45;100739.09;4979400;28;20515;-73
2021/05/06 13:54:26;;;;;;;1.88;0.90;;;;;;;24.40;41.51;100731.63;4973751;28;20050;-69
2021/05/06 13:56:52;;;;;;;0.47;0.47;;;;;;;24.46;41.30;100743.59;4975169;28;20076;-71
2021/05/06 13:59:18;;;;;;;3.45;0.85;;;;;;;24.36;41.74;100728.66;4972917;28;20296;-72
2021/05/06 14:01:52;;;;;;;0.85;0.70;;;;;;;24.32;41.49;100738.34;4976702;28;20042;-68
2021/05/06 14:04:21;;;;;;;1.88;0.90;;;;;;;24.26;41.68;100739.81;4979621;28;20047;-70
2021/05/06 14:06:48;;;;;;;1.85;0.73;;;;;;;24.24;41.45;100737.34;4975535;28;20054;-71
2021/05/06 14:09:16;;;;;;;1.58;0.70;;;;;;;24.11;41.57;100732.94;4983331;28;20520;-71
2021/05/06 14:11:43;;;;;;;2.83;0.95;;;;;;;23.79;42.33;100741.44;4983776;28;20057;-71
2021/05/06 14:14:13;;;;;;;3.28;1.23;;;;;;;23.68;43.60;100739.50;4986469;28;20061;-70
2021/05/06 14:16:42;;;;;;;;;;;;;;;23.68;43.23;100737.47;4983344;28;20137;-70
2021/05/06 14:19:09;;;;;;;3.40;1.30;;;;;;;23.76;43.55;100749.91;4985368;28;20016;-70
2021/05/06 14:21:39;;;;;;;2.80;1.55;;;;;;;23.75;43.25;100739.69;4982356;28;20053;-70
2021/05/06 14:24:08;;;;;;;0.73;0.63;;;;;;;23.47;43.54;100743.38;4983583;28;20050;-72
2021/05/06 14:26:35;;;;;;;1.80;0.85;;;;;;;23.45;43.76;100740.06;4984363;28;20121;-68
2021/05/06 14:29:02;;;;;;;0.95;0.80;;;;;;;23.46;44.37;100740.91;4982631;28;20052;-68
2021/05/06 14:31:29;;;;;;;2.25;0.73;;;;;;;23.41;44.36;100739.13;4988630;28;20482;-70
2021/05/06 14:33:55;;;;;;;1.63;0.57;;;;;;;23.15;44.36;100719.66;4982848;28;20415;-70
2021/05/06 14:36:22;;;;;;;2.83;1.00;;;;;;;23.20;44.16;100727.13;4980103;28;20125;-70
2021/05/06 14:38:49;;;;;;;1.33;0.85;;;;;;;23.14;44.13;100718.00;4980941;28;20174;-69
2021/05/06 14:41:15;;;;;;;1.88;0.80;;;;;;;23.22;44.30;100725.56;4983390;28;20051;-68
2021/05/06 14:43:41;;;;;;;1.23;0.95;;;;;;;23.35;44.37;100729.19;4981750;28;20532;-68
2021/05/06 14:46:08;;;;;;;1.05;0.75;;;;;;;23.27;44.42;100713.91;4981266;28;20644;-68
2021/05/06 14:48:34;;;;;;;1.30;0.70;;;;;;;23.35;44.25;100718.63;4983883;28;20057;-70
2021/05/06 14:51:01;;;;;;;1.33;0.93;;;;;;;23.13;44.53;100690.69;4984343;28;20100;-68
2021/05/06 14:53:29;;;;;;;1.23;0.82;;;;;;;23.18;45.03;100707.56;4986877;28;20406;-69
2021/05/06 14:55:57;;;;;;;2.83;0.75;;;;;;;23.29;45.10;100708.69;4980378;28;20135;-68
2021/05/06 14:58:26;;;;;;;2.83;0.70;;;;;;;23.40;44.37;100715.50;4987787;28;20047;-70